»·PEaware :: N148WT KSNA-KSNA

N148WT :: KSNA-KSNA

FLIGHT INFORMATION

Flight Status: Arrived
Operator: Privately registered:
United States
More flights under this callsign
Pilot: Vlad D. (11271)
Aircraft: Unknown
(B60T)
More flights by this aircraft type
Origin: KSNA John Wayne-Orange Co
United States
Destination: KSNA John Wayne-Orange Co
United States
More flights between these airports :: More routes between these airports
Route: +SLI
File this flight plan on PilotEdge
Remarks: Practice ILS Approach
Altitude:
(Current/Filed)
3,000ft
Speed:
(Current/Filed)
160kts
Departed: 16-May-16 11:20 AM
Arrived: 16-May-16 11:42 AM
Distance/Time
Traveled:
0nm/0:21
Distance/Time
To Go:
Arrived

Flight Plot

Page will automatically refresh every two minutes.


Map Options




Map Legend


Flown Route
Filed Route
Departure Airport
Arrival Airport
Navaid (VOR, NDB)
Fix

Horizontal Profiles

Position Reports

Time Latitude Longitude Heading Altitude Ground
Speed
16-May-16 10:42 33.670225 -117.874694 23 59ft 0kts
16-May-16 10:43 33.670225 -117.874694 23 59ft 0kts
16-May-16 10:44 33.670225 -117.874694 23 59ft 0kts
16-May-16 10:46 33.670225 -117.874694 23 59ft 0kts
16-May-16 10:47 33.670225 -117.874694 23 59ft 0kts
16-May-16 10:48 33.670227 -117.874694 23 59ft 0kts
16-May-16 10:49 33.670229 -117.874692 23 59ft 0kts
16-May-16 10:50 33.670232 -117.874691 23 59ft 0kts
16-May-16 10:51 33.670235 -117.874689 23 59ft 0kts
16-May-16 10:52 33.670238 -117.874688 23 59ft 0kts
16-May-16 10:53 33.670240 -117.874687 23 59ft 0kts
16-May-16 10:53 33.670243 -117.874685 23 59ft 0kts
16-May-16 10:54 33.670245 -117.874684 23 59ft 0kts
16-May-16 10:55 33.670248 -117.874682 23 59ft 0kts
16-May-16 10:56 33.670251 -117.874681 23 59ft 0kts
16-May-16 10:57 33.670254 -117.874679 23 59ft 0kts
16-May-16 10:58 33.670257 -117.874678 23 59ft 0kts
16-May-16 10:59 33.670260 -117.874676 23 59ft 0kts
16-May-16 11:00 33.670262 -117.874675 23 59ft 0kts
16-May-16 11:01 33.670265 -117.874674 23 59ft 0kts
16-May-16 11:02 33.670338 -117.874542 85 59ft 1kts
16-May-16 11:03 33.671108 -117.873220 26 59ft 4kts
16-May-16 11:04 33.672636 -117.872275 27 59ft 6kts
16-May-16 11:05 33.674279 -117.871265 27 59ft 6kts
16-May-16 11:06 33.675971 -117.870226 28 59ft 6kts
16-May-16 11:07 33.676502 -117.869280 206 59ft 0kts
16-May-16 11:08 33.676498 -117.869282 206 59ft 0kts
16-May-16 11:09 33.676495 -117.869284 206 59ft 0kts
16-May-16 11:10 33.676485 -117.869290 206 59ft 0kts
16-May-16 11:12 33.676479 -117.869294 206 59ft 0kts
16-May-16 11:13 33.676867 -117.869670 24 59ft 5kts
16-May-16 11:14 33.677766 -117.869127 26 59ft 4kts
16-May-16 11:15 33.679192 -117.868248 26 59ft 6kts
16-May-16 11:16 33.680817 -117.867239 31 59ft 5kts
16-May-16 11:17 33.680847 -117.866476 117 59ft 0kts
16-May-16 11:18 33.680345 -117.865887 199 59ft 0kts
16-May-16 11:19 33.659317 -117.885705 234 1104ft 126kts
16-May-16 11:20 33.638267 -117.922459 233 2644ft 140kts
16-May-16 11:21 33.651646 -117.954752 17 3118ft 172kts
16-May-16 11:22 33.695517 -117.931995 24 3085ft 170kts
16-May-16 11:23 33.738216 -117.907774 22 3085ft 169kts
16-May-16 11:24 33.781500 -117.885510 22 3082ft 169kts
16-May-16 11:25 33.824376 -117.861385 23 3079ft 169kts
16-May-16 11:26 33.867623 -117.838211 22 3078ft 169kts
16-May-16 11:27 33.911057 -117.815966 21 3091ft 169kts
16-May-16 11:28 33.954474 -117.793546 23 3096ft 169kts
16-May-16 11:28 33.990108 -117.773329 24 3103ft 169kts
16-May-16 11:30 34.011276 -117.727434 145 3097ft 170kts
16-May-16 11:30 33.975596 -117.707173 154 3094ft 169kts
16-May-16 11:31 33.934145 -117.704575 213 3092ft 156kts
16-May-16 11:32 33.896156 -117.729229 212 3085ft 154kts
16-May-16 11:33 33.858107 -117.753082 203 3081ft 154kts
16-May-16 11:34 33.820021 -117.776759 209 3072ft 152kts
16-May-16 11:35 33.783336 -117.800505 208 2373ft 137kts
16-May-16 11:36 33.754787 -117.818665 208 1658ft 106kts
16-May-16 11:37 33.728213 -117.835550 208 1104ft 104kts
16-May-16 11:38 33.702688 -117.851728 208 561ft 101kts
16-May-16 11:39 33.679813 -117.866244 207 59ft 79kts
16-May-16 11:40 33.675862 -117.869713 299 59ft 0kts
16-May-16 11:41 33.675873 -117.869736 299 59ft 1kts
16-May-16 11:42 33.674876 -117.870882 207 59ft 5kts
16-May-16 11:43 33.673498 -117.871722 207 59ft 6kts
16-May-16 11:45 33.671972 -117.872665 207 59ft 6kts
16-May-16 11:46 33.671518 -117.874182 291 59ft 1kts
16-May-16 11:47 33.671525 -117.874199 294 59ft 0kts
16-May-16 11:48 33.671526 -117.874202 294 59ft 0kts

Navigation Log

Ident Type
Flight plan parsing failed, navigation log unavailable